Time;durP1;ratioP1;P1;durP2;ratioP2;P2;SDS_P1;SDS_P2;PMS_P1;PMS_P2;Temp;Humidity;BMP_temperature;BMP_pressure;BME280_temperature;BME280_humidity;BME280_pressure;Samples;Min_cycle;Max_cycle;Signal;HPM_P1;HPM_P2
2023/05/22 00:00:20;;;;;;;6.72;4.43;;;;;;;;;;5064814;28;20029;-82
2023/05/22 00:02:47;;;;;;;10.27;5.82;;;;;;;;;;5075754;28;20052;-82
2023/05/22 00:05:13;;;;;;;13.02;6.45;;;13.10;99.90;;;;;;5076095;28;20031;-84
2023/05/22 00:07:44;;;;;;;11.30;6.65;;;;;;;;;;5073560;28;20158;-83
2023/05/22 00:10:10;;;;;;;10.27;6.00;;;;;;;;;;5061652;28;20029;-83
2023/05/22 00:12:36;;;;;;;8.20;4.65;;;;;;;;;;5068151;28;20527;-82
2023/05/22 00:15:02;;;;;;;11.27;6.13;;;;;;;;;;5045955;28;20047;-83
2023/05/22 00:17:29;;;;;;;11.98;5.95;;;;;;;;;;5072528;28;20024;-83
2023/05/22 00:20:01;;;;;;;12.05;5.75;;;;;;;;;;5077133;28;20054;-83
2023/05/22 00:22:27;;;;;;;10.30;5.03;;;;;;;;;;5075703;28;20654;-82
2023/05/22 00:24:53;;;;;;;13.25;6.65;;;;;;;;;;5066832;28;20035;-83
2023/05/22 00:27:19;;;;;;;11.52;6.13;;;;;;;;;;5050136;28;20427;-83
2023/05/22 00:29:45;;;;;;;10.73;5.35;;;;;;;;;;5067243;28;20032;-82
2023/05/22 00:32:11;;;;;;;10.27;5.47;;;;;;;;;;5069366;28;20031;-83
2023/05/22 00:34:36;;;;;;;10.23;6.00;;;;;;;;;;5055239;28;20033;-83
2023/05/22 00:37:02;;;;;;;10.43;6.40;;;;;;;;;;5078590;28;20043;-84
2023/05/22 00:39:28;;;;;;;12.80;6.10;;;;;;;;;;5053749;28;20128;-83
2023/05/22 00:41:55;;;;;;;12.00;5.88;;;;;;;;;;5048766;28;20576;-83
2023/05/22 00:44:21;;;;;;;10.20;6.25;;;;;;;;;;5067760;28;20099;-85
2023/05/22 00:46:47;;;;;;;10.73;5.60;;;;;;;;;;5045120;28;20025;-83
2023/05/22 00:49:13;;;;;;;11.57;6.50;;;;;;;;;;5068205;28;20908;-83
2023/05/22 00:51:39;;;;;;;10.05;5.43;;;;;;;;;;5066415;28;20040;-84
2023/05/22 00:54:05;;;;;;;10.63;6.13;;;;;;;;;;5074869;28;20031;-83
2023/05/22 00:56:32;;;;;;;9.88;5.40;;;;;;;;;;5067370;28;21945;-84
2023/05/22 00:58:58;;;;;;;12.65;5.28;;;;;;;;;;5054181;28;20393;-83
2023/05/22 01:01:25;;;;;;;13.95;4.97;;;;;;;;;;5068888;28;20021;-83
2023/05/22 01:03:52;;;;;;;11.05;5.93;;;;;;;;;;5032818;28;20780;-84
2023/05/22 01:06:20;;;;;;;10.45;6.30;;;;;;;;;;5070109;28;20603;-83
2023/05/22 01:08:46;;;;;;;12.77;5.65;;;;;;;;;;5069977;28;20024;-84
2023/05/22 01:11:35;;;;;;;8.85;5.47;;;;;;;;;;5044413;28;20464;-83
2023/05/22 01:14:14;;;;;;;9.27;4.68;;;;;;;;;;5040127;28;20025;-84
2023/05/22 01:16:50;;;;;;;12.00;6.72;;;;;;;;;;5040990;28;20031;-83
2023/05/22 01:19:19;;;;;;;10.07;5.47;;;;;;;;;;5063707;28;20025;-84
2023/05/22 01:22:04;;;;;;;9.70;5.63;;;;;;;;;;5063534;28;20043;-84
2023/05/22 01:24:42;;;;;;;10.43;6.22;;;;;;;;;;5047066;28;20392;-84
2023/05/22 01:27:27;;;;;;;11.50;5.70;;;;;;;;;;5064482;28;20550;-84
2023/05/22 01:30:19;;;;;;;11.40;5.28;;;;;;;;;;5061133;28;20032;-83
2023/05/22 01:32:47;;;;;;;11.20;6.07;;;;;;;;;;5046479;28;20041;-83
2023/05/22 01:35:14;;;;;;;10.73;6.30;;;;;;;;;;5062765;28;20488;-83
2023/05/22 01:37:41;;;;;;;16.08;5.90;;;12.70;99.90;;;;;;5048094;28;20040;-83
2023/05/22 01:40:07;;;;;;;16.20;6.13;;;;;;;;;;5072861;28;20028;-83
2023/05/22 01:42:34;;;;;;;11.98;6.68;;;;;;;;;;5063718;28;20503;-84
2023/05/22 01:45:00;;;;;;;11.55;6.50;;;;;;;;;;5063219;28;20111;-84
2023/05/22 01:47:26;;;;;;;12.60;6.25;;;;;;;;;;5049630;28;20476;-84
2023/05/22 01:49:52;;;;;;;11.43;5.57;;;;;;;;;;5052733;28;20033;-83
2023/05/22 01:52:18;;;;;;;;;;;;;;;;;;5069221;28;20512;-84
2023/05/22 01:54:44;;;;;;;;;;;;;;;;;;5065456;28;19912;-84
2023/05/22 01:57:23;;;;;;;;;;;11.70;99.90;;;;;;5050044;28;19908;-83
2023/05/22 01:59:55;;;;;;;;;;;11.50;99.90;;;;;;5068440;28;19912;-83
2023/05/22 02:02:20;;;;;;;;;;;;;;;;;;5065349;28;19956;-83
2023/05/22 02:04:46;;;;;;;;;;;;;;;;;;5047725;28;20497;-84
2023/05/22 02:07:12;;;;;;;;;;;;;;;;;;5070590;28;19916;-83
2023/05/22 02:09:38;;;;;;;;;;;;;;;;;;5065887;28;20446;-83
2023/05/22 02:12:04;;;;;;;;;;;;;;;;;;5067647;28;20012;-82
2023/05/22 02:14:30;;;;;;;;;;;;;;;;;;5044589;28;20399;-83
2023/05/22 02:16:56;;;;;;;;;;;;;;;;;;5044771;28;20062;-84
2023/05/22 02:19:22;;;;;;;;;;;;;;;;;;5064133;28;20431;-83
2023/05/22 02:21:48;;;;;;;;;;;;;;;;;;5040655;28;19913;-84
2023/05/22 02:24:14;;;;;;;;;;;;;;;;;;5060590;28;20070;-83
2023/05/22 02:26:41;;;;;;;;;;;11.20;99.90;;;;;;5074443;28;19916;-83
2023/05/22 02:29:07;;;;;;;;;;;;;;;;;;5054880;28;19908;-83
2023/05/22 02:31:33;;;;;;;;;;;;;;;;;;5063693;28;20042;-83
2023/05/22 02:33:58;;;;;;;;;;;;;;;;;;5051771;28;19923;-83
2023/05/22 02:36:25;;;;;;;;;;;;;;;;;;5065136;28;19930;-84
2023/05/22 02:38:51;;;;;;;;;;;11.00;99.90;;;;;;5061413;28;20376;-84
2023/05/22 02:41:17;;;;;;;;;;;;;;;;;;5068578;28;19919;-85
2023/05/22 02:43:42;;;;;;;;;;;;;;;;;;5068239;28;20017;-84
2023/05/22 02:46:08;;;;;;;;;;;;;;;;;;5069749;28;20441;-84
2023/05/22 02:48:35;;;;;;;;;;;;;;;;;;5064737;28;20054;-84
2023/05/22 02:51:00;;;;;;;;;;;;;;;;;;5071329;28;19957;-84
2023/05/22 02:53:26;;;;;;;;;;;;;;;;;;5071210;28;20502;-84
2023/05/22 02:55:52;;;;;;;;;;;;;;;;;;5070891;28;19916;-83
2023/05/22 02:58:20;;;;;;;;;;;;;;;;;;5050882;28;19923;-84
2023/05/22 03:00:45;;;;;;;;;;;;;;;;;;5062881;28;20395;-84
2023/05/22 03:03:11;;;;;;;;;;;;;;;;;;5048191;28;19955;-84
2023/05/22 03:05:37;;;;;;;;;;;11.10;99.90;;;;;;5066281;28;20308;-84
2023/05/22 03:08:03;;;;;;;;;;;;;;;;;;5050594;28;19923;-84
2023/05/22 03:10:28;;;;;;;;;;;11.00;99.90;;;;;;5065372;28;19916;-84
2023/05/22 03:12:54;;;;;;;;;;;;;;;;;;5070960;28;19916;-84
2023/05/22 03:15:20;;;;;;;;;;;11.10;99.90;;;;;;5065230;28;19991;-84
2023/05/22 03:17:45;;;;;;;;;;;;;;;;;;5068918;28;19908;-84
2023/05/22 03:20:17;;;;;;;;;;;11.00;99.90;;;;;;5065752;28;19913;-84
2023/05/22 03:22:43;;;;;;;;;;;;;;;;;;5067061;28;19989;-84
2023/05/22 03:25:09;;;;;;;;;;;;;;;;;;5080672;28;19948;-83
2023/05/22 03:27:35;;;;;;;;;;;;;;;;;;5064526;28;20352;-83
2023/05/22 03:30:01;;;;;;;;;;;;;;;;;;5071137;28;19931;-83
2023/05/22 03:32:27;;;;;;;;;;;;;;;;;;5067160;28;19914;-84
2023/05/22 03:34:53;;;;;;;;;;;;;;;;;;5072584;28;19912;-83
2023/05/22 03:37:19;;;;;;;;;;;;;;;;;;5071660;28;20019;-84
2023/05/22 03:39:45;;;;;;;;;;;;;;;;;;5068173;28;19936;-84
2023/05/22 03:42:12;;;;;;;;;;;;;;;;;;5064900;28;20410;-83
2023/05/22 03:44:38;;;;;;;;;;;;;;;;;;5050838;28;20292;-84
2023/05/22 03:47:04;;;;;;;10.25;3.72;;;;;;;;;;5063234;28;19916;-83
2023/05/22 03:49:30;;;;;;;7.75;4.40;;;;;;;;;;5046434;28;20112;-83
2023/05/22 03:51:56;;;;;;;6.57;4.07;;;;;;;;;;5061086;28;20100;-84
2023/05/22 03:54:22;;;;;;;6.65;4.07;;;;;;;;;;5063190;28;20028;-84
2023/05/22 03:56:48;;;;;;;6.95;4.15;;;;;;;;;;5063771;28;20035;-84
2023/05/22 03:59:15;;;;;;;8.38;5.22;;;;;;;;;;5058396;28;20480;-84
2023/05/22 04:01:41;;;;;;;7.80;3.90;;;;;;;;;;5048367;28;20271;-83
2023/05/22 04:04:08;;;;;;;5.50;3.65;;;;;;;;;;5067768;28;20074;-83
2023/05/22 04:06:41;;;;;;;10.75;5.40;;;;;;;;;;5070063;28;20075;-84
2023/05/22 04:09:07;;;;;;;10.05;5.03;;;;;;;;;;5047678;28;20124;-84
2023/05/22 04:11:34;;;;;;;7.38;5.25;;;;;;;;;;5069492;28;20025;-84
2023/05/22 04:14:02;;;;;;;8.32;5.53;;;;;;;;;;5067679;28;20040;-84
2023/05/22 04:16:28;;;;;;;11.95;5.85;;;;;;;;;;5061066;28;20035;-85
2023/05/22 04:18:57;;;;;;;11.52;5.30;;;;;;;;;;5069548;28;20028;-83
2023/05/22 04:21:23;;;;;;;8.23;4.35;;;;;;;;;;5044956;28;20058;-84
2023/05/22 04:23:49;;;;;;;12.45;6.10;;;;;;;;;;5066676;28;20024;-83
2023/05/22 04:26:16;;;;;;;8.07;4.75;;;;;;;;;;5068975;28;20048;-84
2023/05/22 04:28:44;;;;;;;14.00;5.75;;;;;;;;;;5073781;28;20111;-84
2023/05/22 04:31:11;;;;;;;11.55;5.38;;;;;;;;;;5052134;28;20051;-84
2023/05/22 04:33:38;;;;;;;9.02;5.30;;;;;;;;;;5049096;28;20052;-85
2023/05/22 04:36:05;;;;;;;13.00;5.70;;;;;;;;;;5057942;28;20070;-83
2023/05/22 04:38:35;;;;;;;11.25;6.15;;;;;;;;;;5065324;28;20124;-84
2023/05/22 04:41:02;;;;;;;11.70;5.85;;;;;;;;;;5063804;28;20426;-84
2023/05/22 04:43:28;;;;;;;10.65;5.95;;;;;;;;;;5068105;28;20025;-83
2023/05/22 04:45:58;;;;;;;10.95;5.15;;;;;;;;;;5051485;28;20024;-81
2023/05/22 04:48:24;;;;;;;11.57;5.05;;;;;;;;;;5055294;28;20084;-83
2023/05/22 04:50:49;;;;;;;13.35;6.43;;;;;;;;;;5066492;28;20555;-81
2023/05/22 04:53:15;;;;;;;10.80;5.53;;;;;;;;;;5047564;28;20047;-84
2023/05/22 04:55:41;;;;;;;10.57;6.35;;;;;;;;;;5065032;28;20032;-84
2023/05/22 04:58:07;;;;;;;12.30;6.25;;;;;;;;;;5070141;28;20032;-83
2023/05/22 05:00:34;;;;;;;10.50;5.78;;;;;;;;;;5055597;28;20029;-83
2023/05/22 05:03:00;;;;;;;9.30;5.50;;;;;;;;;;5075376;28;20032;-82
2023/05/22 05:05:26;;;;;;;11.75;4.68;;;;;;;;;;5056063;28;20033;-82
2023/05/22 05:07:52;;;;;;;9.48;5.40;;;;;;;;;;5065410;28;20245;-82
2023/05/22 05:10:18;;;;;;;8.52;5.20;;;;;;;;;;5070013;28;20226;-82
2023/05/22 05:12:45;;;;;;;17.25;5.20;;;;;;;;;;5073420;28;20043;-82
2023/05/22 05:15:11;;;;;;;11.98;5.15;;;;;;;;;;5048370;28;20028;-83
2023/05/22 05:17:37;;;;;;;13.07;6.00;;;;;;;;;;5057492;28;20054;-82
2023/05/22 05:20:05;;;;;;;8.75;5.45;;;;;;;;;;5056917;28;20566;-81
2023/05/22 05:22:31;;;;;;;8.95;5.00;;;;;;;;;;5059022;28;20493;-82
2023/05/22 05:24:57;;;;;;;10.38;5.28;;;;;;;;;;5067895;28;20112;-82
2023/05/22 05:27:23;;;;;;;7.75;4.93;;;;;;;;;;5060007;28;20029;-83
2023/05/22 05:29:49;;;;;;;11.50;5.05;;;;;;;;;;5060893;28;20020;-82
2023/05/22 05:32:15;;;;;;;8.95;4.70;;;;;;;;;;5060689;28;20024;-84
2023/05/22 05:34:41;;;;;;;9.57;5.72;;;;;;;;;;5045264;28;20554;-84
2023/05/22 05:37:07;;;;;;;13.20;5.97;;;;;;;;;;5075158;28;20024;-83
2023/05/22 05:39:34;;;;;;;5.90;3.70;;;;;;;;;;5075028;28;20028;-84
2023/05/22 05:42:00;;;;;;;8.18;4.75;;;;;;;;;;5060286;28;20119;-84
2023/05/22 05:44:26;;;;;;;9.13;5.03;;;;;;;;;;5068579;28;20313;-84
2023/05/22 05:46:52;;;;;;;10.10;4.55;;;;;;;;;;5055508;28;20039;-84
2023/05/22 05:49:19;;;;;;;10.25;4.68;;;;;;;;;;5072686;28;20028;-84
2023/05/22 05:51:44;;;;;;;8.15;5.10;;;;;;;;;;5075667;28;20038;-84
2023/05/22 05:54:10;;;;;;;6.88;3.78;;;;;;;;;;5076487;28;20104;-84
2023/05/22 05:56:37;;;;;;;6.63;4.72;;;;;;;;;;5076587;28;20064;-84
2023/05/22 05:59:03;;;;;;;6.78;4.40;;;;;;;;;;5057221;28;20518;-84
2023/05/22 06:01:31;;;;;;;30.80;7.25;;;;;;;;;;5065276;28;20028;-84
2023/05/22 06:04:01;;;;;;;14.18;4.28;;;;;;;;;;5070888;28;20580;-84
2023/05/22 06:06:28;;;;;;;7.68;4.20;;;;;;;;;;5072385;28;20024;-84
2023/05/22 06:08:54;;;;;;;6.43;3.55;;;;;;;;;;5072976;28;20517;-84
2023/05/22 06:11:21;;;;;;;8.45;5.00;;;;;;;;;;5073752;28;20041;-84
2023/05/22 06:13:50;;;;;;;9.82;4.50;;;;;;;;;;5061557;28;20253;-84
2023/05/22 06:16:16;;;;;;;5.40;3.42;;;;;;;;;;5095141;28;20016;-83
2023/05/22 06:18:42;;;;;;;6.63;3.90;;;;;;;;;;5073617;28;20039;-84
2023/05/22 06:21:08;;;;;;;7.57;4.50;;;;;;;;;;5090232;28;20032;-84
2023/05/22 06:23:34;;;;;;;6.55;4.20;;;;;;;;;;5089747;28;20012;-83
2023/05/22 06:26:01;;;;;;;6.28;4.20;;;;;;;;;;5075753;28;20059;-84
2023/05/22 06:28:27;;;;;;;6.82;4.18;;;;;;;;;;5068334;28;20008;-83
2023/05/22 06:30:52;;;;;;;6.10;3.50;;;;;;;;;;5081585;28;20036;-84
2023/05/22 06:33:18;;;;;;;6.63;4.30;;;;;;;;;;5081467;28;20029;-83
2023/05/22 06:35:44;;;;;;;6.30;3.60;;;;;;;;;;5076762;28;20031;-84
2023/05/22 06:38:11;;;;;;;5.20;3.78;;;;;;;;;;5081913;28;20025;-84
2023/05/22 06:40:37;;;;;;;5.93;3.63;;;;;;;;;;5079350;28;20040;-84
2023/05/22 06:43:03;;;;;;;6.97;4.20;;;;;;;;;;5062123;28;20332;-84
2023/05/22 06:45:29;;;;;;;6.72;3.92;;;;;;;;;;5084124;28;20504;-84
2023/05/22 06:47:55;;;;;;;5.85;3.55;;;;;;;;;;5085090;28;20052;-84
2023/05/22 06:50:21;;;;;;;7.72;3.15;;;;;;;;;;5081759;28;20037;-84
2023/05/22 06:52:48;;;;;;;6.13;4.10;;;;;;;;;;5080239;28;20037;-84
2023/05/22 06:55:13;;;;;;;6.55;3.50;;;;;;;;;;5075939;28;20032;-85
2023/05/22 06:57:39;;;;;;;6.57;4.00;;;;;;;;;;5075590;28;20081;-84
2023/05/22 07:00:11;;;;;;;6.90;4.18;;;;;;;;;;5054606;28;20051;-85
2023/05/22 07:02:37;;;;;;;8.68;4.20;;;;;;;;;;5078062;28;20158;-84
2023/05/22 07:05:03;;;;;;;7.95;3.78;;;;;;;;;;5055664;28;20033;-84
2023/05/22 07:07:29;;;;;;;9.40;4.65;;;;;;;;;;5051145;28;20580;-84
2023/05/22 07:09:55;;;;;;;8.20;4.50;;;;;;;;;;5045586;28;20033;-84
2023/05/22 07:12:24;;;;;;;8.07;4.53;;;;;;;;;;5049443;28;20032;-85
2023/05/22 07:14:50;;;;;;;7.93;4.00;;;;;;;;;;5045877;28;20404;-86
2023/05/22 07:17:17;;;;;;;7.03;4.18;;;;;;;;;;5042937;28;20029;-85
2023/05/22 07:19:43;;;;;;;8.73;4.60;;;;;;;;;;5053501;28;20052;-86
2023/05/22 07:22:09;;;;;;;6.90;3.90;;;;;;;;;;5070110;28;21277;-86
2023/05/22 07:24:35;;;;;;;6.35;4.13;;;;;;;;;;5044223;28;20028;-85
2023/05/22 07:27:03;;;;;;;6.95;4.05;;;;;;;;;;5051372;28;20116;-85
2023/05/22 07:29:29;;;;;;;10.25;4.68;;;;;;;;;;5068112;28;20416;-85
2023/05/22 07:31:55;;;;;;;10.05;4.50;;;;;;;;;;5047266;28;20079;-85
2023/05/22 07:34:21;;;;;;;11.50;4.13;;;;;;;;;;5050859;28;20072;-86
2023/05/22 07:36:47;;;;;;;5.75;4.38;;;;;;;;;;5059295;28;20036;-87
2023/05/22 07:39:14;;;;;;;6.90;4.30;;;;;;;;;;5071696;28;20036;-86
2023/05/22 07:41:40;;;;;;;7.65;3.97;;;;;;;;;;5073274;28;20484;-87
2023/05/22 07:44:06;;;;;;;6.68;3.60;;;;;;;;;;5051287;28;20028;-86
2023/05/22 07:46:34;;;;;;;6.10;3.67;;;;;;;;;;5073934;28;20048;-85
2023/05/22 07:49:00;;;;;;;6.35;4.57;;;;;;;;;;5070713;28;20410;-85
2023/05/22 07:51:26;;;;;;;6.70;3.92;;;;;;;;;;5067883;28;20043;-85
2023/05/22 07:53:52;;;;;;;7.45;4.05;;;;;;;;;;5075319;28;20044;-84
2023/05/22 07:56:18;;;;;;;5.93;3.42;;;;;;;;;;5054751;28;20038;-85
2023/05/22 07:58:46;;;;;;;7.25;4.13;;;;;;;;;;5053320;28;20030;-85
2023/05/22 08:01:14;;;;;;;5.10;3.40;;;;;;;;;;5079169;28;20036;-85
2023/05/22 08:03:41;;;;;;;7.28;4.03;;;;;;;;;;5050538;28;20041;-85
2023/05/22 08:06:07;;;;;;;5.82;3.92;;;;;;;;;;5054946;28;20477;-86
2023/05/22 08:08:33;;;;;;;11.27;5.97;;;;;;;;;;5053836;28;20473;-85
2023/05/22 08:10:59;;;;;;;9.07;5.35;;;;;;;;;;5077576;28;20043;-86
2023/05/22 08:13:25;;;;;;;8.93;4.25;;;;;;;;;;5070995;28;20107;-87
2023/05/22 08:15:51;;;;;;;7.40;4.47;;;;;;;;;;5049351;28;20031;-86
2023/05/22 08:18:17;;;;;;;5.95;3.78;;;;;;;;;;5067974;28;20033;-84
2023/05/22 08:20:45;;;;;;;6.68;4.05;;;;;;;;;;5072259;28;20036;-86
2023/05/22 08:23:11;;;;;;;8.38;4.35;;;;;;;;;;5055176;28;20044;-84
2023/05/22 08:25:37;;;;;;;5.95;3.35;;;;;;;;;;5071354;28;20024;-86
2023/05/22 08:28:03;;;;;;;8.93;3.95;;;;;;;;;;5068390;28;20220;-86
2023/05/22 08:30:29;;;;;;;6.30;3.38;;;;;;;;;;5074213;28;20032;-87
2023/05/22 08:32:55;;;;;;;6.55;3.78;;;;;;;;;;5048095;28;20029;-86
2023/05/22 08:35:21;;;;;;;7.78;4.75;;;;;;;;;;5047800;28;20034;-86
2023/05/22 08:37:47;;;;;;;12.05;4.68;;;;;;;;;;5074090;28;20032;-85
2023/05/22 08:40:14;;;;;;;9.63;4.15;;;;;;;;;;5066738;28;20024;-84
2023/05/22 08:42:40;;;;;;;8.18;4.80;;;;;;;;;;5053481;28;20120;-84
2023/05/22 08:45:06;;;;;;;9.20;4.05;;;;;;;;;;5049960;28;20029;-84
2023/05/22 08:47:35;;;;;;;7.90;4.35;;;;;;;;;;5056858;28;20036;-87
2023/05/22 08:50:02;;;;;;;6.90;4.05;;;;;;;;;;5057175;28;20511;-86
2023/05/22 08:52:43;;;;;;;4.82;3.72;;;;;;;;;;5048407;28;20036;-87
2023/05/22 08:55:09;;;;;;;8.90;3.97;;;;;;;;;;5057379;28;20033;-87
2023/05/22 08:57:36;;;;;;;6.25;3.83;;;;;;;;;;5055773;28;20032;-86
2023/05/22 09:00:02;;;;;;;7.75;4.18;;;;;;;;;;5055097;28;20028;-86
2023/05/22 09:02:28;;;;;;;7.30;3.67;;;;;;;;;;5053835;28;20547;-87
2023/05/22 09:04:56;;;;;;;5.15;3.45;;;;;;;;;;5063971;28;20025;-86
2023/05/22 09:07:22;;;;;;;4.95;3.45;;;;;;;;;;5061695;28;20412;-87
2023/05/22 09:09:49;;;;;;;5.47;2.80;;;;;;;;;;5056238;28;20055;-83
2023/05/22 09:12:15;;;;;;;9.38;3.72;;;;;;;;;;5072718;28;20028;-83
2023/05/22 09:14:42;;;;;;;7.22;3.15;;;40.80;40.70;;;;;;5072690;28;20029;-87
2023/05/22 09:17:09;;;;;;;6.03;3.83;;;;;;;;;;5051009;28;20033;-86
2023/05/22 09:19:37;;;;;;;7.82;3.45;;;;;;;;;;5063026;28;20055;-85
2023/05/22 09:22:04;;;;;;;7.85;3.83;;;;;;;;;;5081098;28;20024;-84
2023/05/22 09:24:31;;;;;;;6.00;3.90;;;;;;;;;;5046018;28;20151;-84
2023/05/22 09:26:58;;;;;;;;;;;36.80;43.20;;;;;;5049739;28;20040;-85
2023/05/22 09:29:24;;;;;;;6.78;3.95;;;;;;;;;;5056937;28;19908;-84
2023/05/22 09:31:50;;;;;;;5.45;3.35;;;;;;;;;;5083539;28;20039;-86
2023/05/22 09:34:16;;;;;;;;;;;32.10;54.50;;;;;;5064475;28;20024;-85
2023/05/22 09:36:42;;;;;;;;;;;31.40;53.70;;;;;;5062982;28;19909;-85
2023/05/22 09:39:08;;;;;;;;;;;30.30;56.10;;;;;;5059107;28;19948;-87
2023/05/22 09:41:37;;;;;;;;;;;30.40;57.10;;;;;;5056401;28;19915;-86
2023/05/22 09:44:25;;;;;;;6.68;3.85;;;;;;;;;;5068755;28;19909;-86
2023/05/22 09:46:51;;;;;;;7.75;3.67;;;;;;;;;;5050514;28;20024;-86
2023/05/22 09:49:17;;;;;;;8.48;4.00;;;;;;;;;;5057536;28;20465;-86
2023/05/22 09:51:46;;;;;;;7.50;3.70;;;;;;;;;;5055347;28;20024;-84
2023/05/22 09:54:13;;;;;;;9.52;4.63;;;;;;;;;;5057184;28;20051;-84
2023/05/22 09:56:39;;;;;;;;;;;29.70;61.40;;;;;;5069960;28;20059;-85
2023/05/22 09:59:08;;;;;;;;;;;28.40;60.40;;;;;;5054160;28;19909;-85
2023/05/22 10:01:34;;;;;;;;;;;28.50;61.20;;;;;;5069362;28;20038;-85
2023/05/22 10:04:00;;;;;;;;;;;28.10;62.00;;;;;;5051152;28;20139;-85
2023/05/22 10:06:26;;;;;;;;;;;28.30;61.80;;;;;;5060237;28;19995;-84
2023/05/22 10:09:03;;;;;;;;;;;31.70;66.20;;;;;;5060764;28;19936;-83
2023/05/22 10:11:30;;;;;;;;;;;28.10;65.00;;;;;;5052096;28;19912;-84
2023/05/22 10:13:57;;;;;;;;;;;27.80;63.00;;;;;;5041031;28;19924;-84
2023/05/22 10:16:24;;;;;;;;;;;28.00;62.50;;;;;;5046679;28;19916;-85
2023/05/22 10:18:51;;;;;;;;;;;27.70;64.80;;;;;;5046703;28;19915;-85
2023/05/22 10:21:17;;;;;;;;;;;27.70;63.70;;;;;;5047108;28;20006;-85
2023/05/22 10:23:43;;;;;;;;;;;27.80;65.40;;;;;;5047369;28;19996;-84
2023/05/22 10:26:08;;;;;;;;;;;;;;;;;;5052925;28;19916;-84
2023/05/22 10:28:40;;;;;;;;;;;27.50;67.30;;;;;;5053381;28;19908;-84
2023/05/22 10:31:36;;;;;;;;;;;27.80;64.90;;;;;;5047599;28;19916;-84
2023/05/22 10:34:04;;;;;;;;;;;27.50;67.10;;;;;;5027403;28;19908;-84
2023/05/22 10:36:30;;;;;;;;;;;27.70;67.70;;;;;;5050685;28;19935;-84
2023/05/22 10:38:56;;;;;;;;;;;28.20;66.30;;;;;;5044176;28;19951;-84
2023/05/22 10:41:22;;;;;;;;;;;27.70;66.20;;;;;;5038813;28;19921;-85
2023/05/22 10:43:48;;;;;;;;;;;27.80;65.80;;;;;;5040461;28;19924;-84
2023/05/22 10:46:13;;;;;;;;;;;27.60;67.70;;;;;;5048738;28;20311;-84
2023/05/22 10:48:40;;;;;;;;;;;27.50;65.80;;;;;;5054145;28;19984;-84
2023/05/22 10:51:06;;;;;;;;;;;28.00;66.20;;;;;;5069174;28;19916;-84
2023/05/22 10:53:32;;;;;;;;;;;27.90;67.70;;;;;;5044387;28;19916;-83
2023/05/22 10:56:01;;;;;;;;;;;27.80;67.30;;;;;;5057321;28;19913;-84
2023/05/22 10:58:30;;;;;;;;;;;27.80;67.30;;;;;;5066962;28;19998;-84
2023/05/22 11:01:15;;;;;;;;;;;29.00;67.50;;;;;;5049225;28;19912;-84
2023/05/22 11:03:50;;;;;;;;;;;28.60;68.40;;;;;;5051474;28;19908;-86
2023/05/22 11:06:16;;;;;;;;;;;;;;;;;;5053317;28;20038;-85
2023/05/22 11:08:42;;;;;;;;;;;27.90;64.20;;;;;;5064834;28;19912;-84
2023/05/22 11:11:11;;;;;;;;;;;27.90;64.20;;;;;;5063484;28;20458;-86
2023/05/22 11:13:37;;;;;;;;;;;28.80;65.30;;;;;;5048964;28;19919;-84
2023/05/22 11:16:03;;;;;;;;;;;27.90;65.30;;;;;;5052490;28;19947;-84
2023/05/22 11:18:29;;;;;;;;;;;27.80;67.50;;;;;;5070575;28;19915;-85
2023/05/22 11:20:57;;;;;;;;;;;27.80;66.70;;;;;;5067801;28;19919;-84
2023/05/22 11:23:23;;;;;;;;;;;27.90;67.30;;;;;;5073603;28;19920;-84
2023/05/22 11:25:49;;;;;;;;;;;28.20;68.30;;;;;;5065391;28;20288;-84
2023/05/22 11:28:15;;;;;;;;;;;27.90;68.20;;;;;;5064257;28;19958;-84
2023/05/22 11:30:40;;;;;;;;;;;28.20;65.60;;;;;;5064634;28;19938;-85
2023/05/22 11:33:06;;;;;;;;;;;28.40;65.20;;;;;;5059627;28;19908;-84
2023/05/22 11:35:31;;;;;;;;;;;29.50;67.40;;;;;;5067363;28;19917;-84
2023/05/22 11:37:57;;;;;;;;;;;29.50;66.50;;;;;;5046925;28;20007;-83
2023/05/22 11:40:24;;;;;;;;;;;29.60;67.20;;;;;;5054025;28;20268;-84
2023/05/22 11:42:50;;;;;;;;;;;29.80;64.70;;;;;;5053497;28;20035;-85
2023/05/22 11:45:16;;;;;;;;;;;28.60;63.60;;;;;;5053023;28;20059;-84
2023/05/22 11:47:42;;;;;;;;;;;28.30;64.20;;;;;;5050005;28;19957;-84
2023/05/22 11:50:08;;;;;;;;;;;29.50;66.50;;;;;;5073702;28;20630;-85
2023/05/22 11:52:35;;;;;;;;;;;29.50;67.00;;;;;;5050257;28;19920;-84
2023/05/22 11:55:04;;;;;;;;;;;28.70;65.50;;;;;;5071587;28;20355;-83
2023/05/22 11:57:30;;;;;;;;;;;28.80;63.40;;;;;;5054525;28;19955;-84
2023/05/22 11:59:56;;;;;;;;;;;28.60;63.30;;;;;;5066961;28;19908;-85
2023/05/22 12:02:22;;;;;;;;;;;28.40;63.60;;;;;;5058860;28;20012;-83
2023/05/22 12:04:52;;;;;;;;;;;28.60;63.30;;;;;;5070921;28;20007;-84
2023/05/22 12:07:17;;;;;;;;;;;28.50;66.10;;;;;;5053477;28;19995;-84
2023/05/22 12:09:43;;;;;;;;;;;28.50;65.70;;;;;;5051494;28;20419;-86
2023/05/22 12:12:10;;;;;;;;;;;28.40;62.20;;;;;;5054338;28;19999;-84
2023/05/22 12:14:35;;;;;;;;;;;28.50;61.40;;;;;;5035787;28;19905;-84
2023/05/22 12:17:03;;;;;;;;;;;29.50;62.00;;;;;;5051516;28;19966;-85
2023/05/22 12:19:28;;;;;;;;;;;29.20;62.10;;;;;;5068900;28;19919;-84
2023/05/22 12:21:54;;;;;;;;;;;28.20;63.10;;;;;;5077651;28;19908;-84
2023/05/22 12:24:22;;;;;;;;;;;28.40;63.70;;;;;;5067296;28;20327;-84
2023/05/22 12:26:54;;;;;;;;;;;29.10;62.10;;;;;;5052862;28;19912;-84
2023/05/22 12:29:23;;;;;;;;;;;28.40;63.70;;;;;;5067054;28;19904;-83
2023/05/22 12:31:48;;;;;;;;;;;28.70;66.40;;;;;;5076144;28;20242;-84
2023/05/22 12:34:15;;;;;;;;;;;29.60;63.30;;;;;;5057095;28;20011;-83
2023/05/22 12:36:42;;;;;;;;;;;30.00;61.70;;;;;;5061050;28;19959;-84
2023/05/22 12:39:09;;;;;;;;;;;30.00;62.70;;;;;;5048009;28;19914;-84
2023/05/22 12:41:34;;;;;;;;;;;29.30;61.90;;;;;;5068707;28;19956;-87
2023/05/22 12:44:02;;;;;;;;;;;29.90;62.10;;;;;;5049292;28;19934;-84
2023/05/22 12:46:30;;;;;;;;;;;29.80;62.00;;;;;;5067882;28;19939;-83
2023/05/22 12:48:55;;;;;;;;;;;29.40;60.90;;;;;;5033356;28;20010;-84
2023/05/22 12:51:22;;;;;;;;;;;31.10;62.20;;;;;;5074284;28;19995;-83
2023/05/22 12:53:48;;;;;;;;;;;29.20;63.50;;;;;;5053759;28;19908;-84
2023/05/22 12:56:14;;;;;;;;;;;28.50;59.70;;;;;;5053535;28;19921;-84
2023/05/22 12:58:39;;;;;;;;;;;29.70;61.20;;;;;;5071267;28;19912;-84
2023/05/22 13:01:05;;;;;;;;;;;29.70;59.00;;;;;;5042855;28;20488;-83
2023/05/22 13:03:30;;;;;;;;;;;29.50;59.20;;;;;;5051734;28;19908;-84
2023/05/22 13:05:56;;;;;;;;;;;28.50;59.50;;;;;;5068397;28;19909;-84
2023/05/22 13:08:22;;;;;;;;;;;29.40;60.60;;;;;;5067342;28;19986;-85
2023/05/22 13:10:47;;;;;;;;;;;29.50;61.00;;;;;;5050993;28;19931;-83
2023/05/22 13:13:13;;;;;;;;;;;29.30;59.10;;;;;;5050871;28;19916;-84
2023/05/22 13:15:38;;;;;;;;;;;29.60;61.20;;;;;;5067338;28;20003;-84
2023/05/22 13:18:04;;;;;;;;;;;28.50;57.70;;;;;;5068741;28;19915;-83
2023/05/22 13:20:30;;;;;;;;;;;28.80;59.40;;;;;;5069375;28;19912;-83
2023/05/22 13:22:55;;;;;;;;;;;29.10;59.00;;;;;;5045962;28;19954;-86
2023/05/22 13:25:21;;;;;;;;;;;29.20;58.60;;;;;;5051855;28;19943;-84
2023/05/22 13:27:46;;;;;;;;;;;29.10;57.40;;;;;;5070689;28;19912;-86
2023/05/22 13:30:12;;;;;;;;;;;29.70;57.50;;;;;;5062970;28;19987;-83
2023/05/22 13:32:37;;;;;;;;;;;28.50;55.80;;;;;;5054302;28;19909;-85
2023/05/22 13:35:03;;;;;;;;;;;28.80;56.10;;;;;;5069539;28;19908;-85
2023/05/22 13:37:29;;;;;;;;;;;;;;;;;;5069848;28;20293;-84
2023/05/22 13:39:54;;;;;;;;;;;28.60;56.00;;;;;;5057796;28;19912;-84
2023/05/22 13:42:20;;;;;;;;;;;29.30;56.10;;;;;;5070531;28;19912;-84
2023/05/22 13:44:45;;;;;;;;;;;29.70;56.40;;;;;;5053320;28;19908;-86
2023/05/22 13:47:11;;;;;;;;;;;28.40;55.70;;;;;;5065546;28;19909;-85
2023/05/22 13:49:36;;;;;;;;;;;28.60;57.80;;;;;;5058998;28;19915;-86
2023/05/22 13:52:02;;;;;;;;;;;28.80;55.10;;;;;;5036820;28;19995;-84
2023/05/22 13:54:27;;;;;;;;;;;29.70;56.40;;;;;;5068666;28;19912;-87
2023/05/22 13:56:53;;;;;;;;;;;28.50;54.90;;;;;;5060954;28;19919;-83
2023/05/22 13:59:18;;;;;;;;;;;29.60;55.30;;;;;;5062477;28;19919;-85
2023/05/22 14:01:44;;;;;;;;;;;28.70;55.30;;;;;;5067360;28;19915;-85
2023/05/22 14:04:09;;;;;;;;;;;28.50;54.80;;;;;;5074239;28;19991;-84
2023/05/22 14:06:35;;;;;;;;;;;29.00;53.70;;;;;;5068074;28;19912;-86
2023/05/22 14:09:00;;;;;;;;;;;29.30;52.00;;;;;;5067567;28;19987;-85
2023/05/22 14:11:26;;;;;;;;;;;28.40;51.40;;;;;;5070074;28;19909;-86
2023/05/22 14:13:53;;;;;;;;;;;28.40;52.80;;;;;;5072643;28;19916;-85
2023/05/22 14:16:18;;;;;;;;;;;;;;;;;;5032207;28;19912;-86
2023/05/22 14:18:44;;;;;;;;;;;28.60;54.40;;;;;;5052769;28;20304;-86
2023/05/22 14:21:09;;;;;;;;;;;28.50;53.50;;;;;;5072385;28;19967;-85
2023/05/22 14:23:35;;;;;;;;;;;29.40;54.40;;;;;;5066639;28;20368;-85
2023/05/22 14:26:00;;;;;;;;;;;29.20;52.50;;;;;;5051298;28;19917;-85
2023/05/22 14:28:26;;;;;;;;;;;29.00;54.60;;;;;;5051932;28;19978;-86
2023/05/22 14:30:51;;;;;;;;;;;28.70;56.40;;;;;;5044687;28;19909;-86
2023/05/22 14:33:17;;;;;;;;;;;29.60;56.80;;;;;;5069047;28;20430;-86
2023/05/22 14:35:43;;;;;;;;;;;28.40;55.30;;;;;;5082835;28;19915;-84
2023/05/22 14:38:08;;;;;;;;;;;29.20;56.60;;;;;;5068951;28;20079;-83
2023/05/22 14:40:34;;;;;;;;;;;28.50;53.70;;;;;;5057564;28;19908;-86